Hlavní strana
METAR-TAF:

METAR-TAF

Letiště :

Hammerfest, Norsko

zeměpisná šířka: 70-40N, zeměpisná délka: 023-40E, výška: 8 m

Aktuální stav počasí

Zpráva byla vytvořena před 29 minutami, v 03:50 UTC
Severoseverovýchodní vítr 5 kt
Teplota -1°C
Vlhkost vzduchu 100%
Tlak 1007 hPa
Viditelnost 10 km a více
Skoro jasno ve výšce 500 ft
Polojasno ve výšce 1200 ft
Oblačno až skoro zataženo ve výšce 2000 ft
přeháňky v blízkosti

METAR: ENHF 240350Z 03005KT 9999 VCSH FEW005 SCT012 BKN020 M01/M01 Q1007 RESHSN RMK WIND 1254FT 10007KT

Čas: 06:19 (04:19 UTC)

Předpověď počasí

Zpráva byla vytvořena před 2 hodinami a 19 minutami, v 02:00 UTC
Předpověď platná od 24 v 03 UTC do 24 v 12 UTC
Severovýchodní vítr 8 kt
Viditelnost 10 km a více
Oblačno až skoro zataženo ve výšce 2000 ft
Dočasný
od 24 v 03 UTC do 24 v 06 UTC
Viditelnost: 2500 m
ve výšce 800 ft
slabé sněhové přeháňky

TAF: ENHF 240200Z 2403/2412 04008KT 9999 BKN020 TEMPO 2403/2406 2500 -SHSN VV008

Stav a předpovědi počasí z více než 4 000 letišť (zprávy METAR a TAF).

Červené a žluté tečky na mapě představují dostupné meteorologické stanice.

Když kurzor umístíte na tečku, zobrazí se název stanice.

Pak kliknutím zobrazíte stav a předpověď počasí.

Chcete-li změnit mapu, kliknutím na zelené tlačítko se znaménkem +mapu přiblížíte, kliknutím na zelené tlačítko se znaménkem – mapu oddálíte a kliknutím na zelené šipky přejdete na sousední mapy.


METAR-TAF: